sensor_id;sensor_type;location;lat;lon;timestamp;P1;durP1;ratioP1;P2;durP2;ratioP2
8895;SDS011;4484;48.928;10.066;2023-01-19T00:00:51;16.90;;;8.53;;
8895;SDS011;4484;48.928;10.066;2023-01-19T00:03:17;13.40;;;8.47;;
8895;SDS011;4484;48.928;10.066;2023-01-19T00:05:44;10.63;;;7.50;;
8895;SDS011;4484;48.928;10.066;2023-01-19T00:08:11;12.10;;;8.27;;
8895;SDS011;4484;48.928;10.066;2023-01-19T00:10:43;12.03;;;8.27;;
8895;SDS011;4484;48.928;10.066;2023-01-19T00:13:12;9.70;;;7.07;;
8895;SDS011;4484;48.928;10.066;2023-01-19T00:15:40;10.73;;;6.87;;
8895;SDS011;4484;48.928;10.066;2023-01-19T00:18:07;11.23;;;7.20;;
8895;SDS011;4484;48.928;10.066;2023-01-19T00:20:36;8.00;;;6.30;;
8895;SDS011;4484;48.928;10.066;2023-01-19T00:23:04;8.03;;;5.90;;
8895;SDS011;4484;48.928;10.066;2023-01-19T00:25:33;12.83;;;7.40;;
8895;SDS011;4484;48.928;10.066;2023-01-19T00:28:00;13.50;;;8.93;;
8895;SDS011;4484;48.928;10.066;2023-01-19T00:30:27;12.83;;;8.47;;
8895;SDS011;4484;48.928;10.066;2023-01-19T00:32:55;14.30;;;9.00;;
8895;SDS011;4484;48.928;10.066;2023-01-19T00:35:21;10.50;;;7.60;;
8895;SDS011;4484;48.928;10.066;2023-01-19T00:37:48;12.73;;;8.07;;
8895;SDS011;4484;48.928;10.066;2023-01-19T00:40:15;11.07;;;6.93;;
8895;SDS011;4484;48.928;10.066;2023-01-19T00:42:43;10.47;;;6.93;;
8895;SDS011;4484;48.928;10.066;2023-01-19T00:45:20;11.40;;;6.80;;
8895;SDS011;4484;48.928;10.066;2023-01-19T00:47:49;10.17;;;6.93;;
8895;SDS011;4484;48.928;10.066;2023-01-19T00:50:22;10.83;;;7.17;;
8895;SDS011;4484;48.928;10.066;2023-01-19T00:52:51;13.07;;;7.50;;
8895;SDS011;4484;48.928;10.066;2023-01-19T00:55:19;15.10;;;8.90;;
8895;SDS011;4484;48.928;10.066;2023-01-19T00:57:46;11.53;;;7.77;;
8895;SDS011;4484;48.928;10.066;2023-01-19T01:00:15;12.17;;;8.50;;
8895;SDS011;4484;48.928;10.066;2023-01-19T01:02:45;11.03;;;7.63;;
8895;SDS011;4484;48.928;10.066;2023-01-19T01:05:13;11.73;;;7.47;;
8895;SDS011;4484;48.928;10.066;2023-01-19T01:07:40;15.77;;;7.83;;
8895;SDS011;4484;48.928;10.066;2023-01-19T01:10:07;14.83;;;8.70;;
8895;SDS011;4484;48.928;10.066;2023-01-19T01:12:36;12.57;;;8.53;;
8895;SDS011;4484;48.928;10.066;2023-01-19T01:15:04;15.20;;;8.07;;
8895;SDS011;4484;48.928;10.066;2023-01-19T01:17:32;14.00;;;8.87;;
8895;SDS011;4484;48.928;10.066;2023-01-19T01:19:59;13.30;;;8.63;;
8895;SDS011;4484;48.928;10.066;2023-01-19T01:22:26;16.70;;;8.57;;
8895;SDS011;4484;48.928;10.066;2023-01-19T01:24:53;14.13;;;8.17;;
8895;SDS011;4484;48.928;10.066;2023-01-19T01:27:19;14.77;;;9.03;;
8895;SDS011;4484;48.928;10.066;2023-01-19T01:29:46;11.97;;;8.13;;
8895;SDS011;4484;48.928;10.066;2023-01-19T01:32:13;14.47;;;8.67;;
8895;SDS011;4484;48.928;10.066;2023-01-19T01:34:41;14.07;;;8.77;;
8895;SDS011;4484;48.928;10.066;2023-01-19T01:37:08;12.47;;;8.23;;
8895;SDS011;4484;48.928;10.066;2023-01-19T01:39:34;12.93;;;8.97;;
8895;SDS011;4484;48.928;10.066;2023-01-19T01:42:02;12.33;;;7.80;;
8895;SDS011;4484;48.928;10.066;2023-01-19T01:47:21;13.87;;;8.73;;
8895;SDS011;4484;48.928;10.066;2023-01-19T01:49:52;14.43;;;8.50;;
8895;SDS011;4484;48.928;10.066;2023-01-19T01:52:24;15.77;;;8.67;;
8895;SDS011;4484;48.928;10.066;2023-01-19T01:54:54;11.77;;;8.33;;
8895;SDS011;4484;48.928;10.066;2023-01-19T01:57:21;11.17;;;8.00;;
8895;SDS011;4484;48.928;10.066;2023-01-19T01:59:53;13.23;;;8.00;;
8895;SDS011;4484;48.928;10.066;2023-01-19T02:02:23;12.50;;;7.77;;
8895;SDS011;4484;48.928;10.066;2023-01-19T02:05:16;10.83;;;7.10;;
8895;SDS011;4484;48.928;10.066;2023-01-19T02:07:51;15.50;;;8.23;;
8895;SDS011;4484;48.928;10.066;2023-01-19T02:10:38;12.97;;;8.23;;
8895;SDS011;4484;48.928;10.066;2023-01-19T02:13:29;11.90;;;8.60;;
8895;SDS011;4484;48.928;10.066;2023-01-19T02:15:58;18.10;;;7.63;;
8895;SDS011;4484;48.928;10.066;2023-01-19T02:18:29;11.60;;;8.03;;
8895;SDS011;4484;48.928;10.066;2023-01-19T02:26:04;12.80;;;7.63;;
8895;SDS011;4484;48.928;10.066;2023-01-19T02:28:36;12.07;;;7.90;;
8895;SDS011;4484;48.928;10.066;2023-01-19T02:31:06;12.13;;;8.27;;
8895;SDS011;4484;48.928;10.066;2023-01-19T02:33:33;14.93;;;8.30;;
8895;SDS011;4484;48.928;10.066;2023-01-19T02:36:00;10.77;;;7.63;;
8895;SDS011;4484;48.928;10.066;2023-01-19T02:38:28;15.53;;;8.93;;
8895;SDS011;4484;48.928;10.066;2023-01-19T02:40:57;12.40;;;7.73;;
8895;SDS011;4484;48.928;10.066;2023-01-19T02:43:26;14.33;;;8.77;;
8895;SDS011;4484;48.928;10.066;2023-01-19T02:45:55;15.43;;;9.53;;
8895;SDS011;4484;48.928;10.066;2023-01-19T02:48:22;13.67;;;8.70;;
8895;SDS011;4484;48.928;10.066;2023-01-19T02:50:50;10.87;;;7.73;;
8895;SDS011;4484;48.928;10.066;2023-01-19T02:53:31;13.03;;;8.70;;
8895;SDS011;4484;48.928;10.066;2023-01-19T02:58:51;12.30;;;8.60;;
8895;SDS011;4484;48.928;10.066;2023-01-19T03:07:10;10.13;;;7.57;;
8895;SDS011;4484;48.928;10.066;2023-01-19T03:09:49;15.03;;;8.83;;
8895;SDS011;4484;48.928;10.066;2023-01-19T03:13:13;12.47;;;7.60;;
8895;SDS011;4484;48.928;10.066;2023-01-19T03:18:24;13.33;;;9.07;;
8895;SDS011;4484;48.928;10.066;2023-01-19T03:20:56;14.03;;;8.83;;
8895;SDS011;4484;48.928;10.066;2023-01-19T03:23:26;12.90;;;8.03;;
8895;SDS011;4484;48.928;10.066;2023-01-19T03:25:56;16.80;;;9.77;;
8895;SDS011;4484;48.928;10.066;2023-01-19T03:28:25;13.07;;;8.87;;
8895;SDS011;4484;48.928;10.066;2023-01-19T03:30:59;14.93;;;9.83;;
8895;SDS011;4484;48.928;10.066;2023-01-19T03:33:31;12.83;;;9.57;;
8895;SDS011;4484;48.928;10.066;2023-01-19T03:36:02;12.23;;;9.23;;
8895;SDS011;4484;48.928;10.066;2023-01-19T03:38:37;14.43;;;9.90;;
8895;SDS011;4484;48.928;10.066;2023-01-19T03:41:07;14.20;;;10.63;;
8895;SDS011;4484;48.928;10.066;2023-01-19T03:43:38;17.97;;;10.60;;
8895;SDS011;4484;48.928;10.066;2023-01-19T03:46:06;16.60;;;10.83;;
8895;SDS011;4484;48.928;10.066;2023-01-19T03:48:36;17.70;;;9.73;;
8895;SDS011;4484;48.928;10.066;2023-01-19T03:51:04;17.40;;;10.80;;
8895;SDS011;4484;48.928;10.066;2023-01-19T03:53:33;17.33;;;9.33;;
8895;SDS011;4484;48.928;10.066;2023-01-19T03:56:00;14.60;;;10.27;;
8895;SDS011;4484;48.928;10.066;2023-01-19T03:58:27;17.57;;;10.03;;
8895;SDS011;4484;48.928;10.066;2023-01-19T04:00:54;16.70;;;10.00;;
8895;SDS011;4484;48.928;10.066;2023-01-19T04:03:21;16.13;;;9.63;;
8895;SDS011;4484;48.928;10.066;2023-01-19T04:05:48;16.83;;;10.40;;
8895;SDS011;4484;48.928;10.066;2023-01-19T04:08:15;15.63;;;9.23;;
8895;SDS011;4484;48.928;10.066;2023-01-19T04:10:41;14.80;;;9.63;;
8895;SDS011;4484;48.928;10.066;2023-01-19T04:13:08;16.60;;;10.13;;
8895;SDS011;4484;48.928;10.066;2023-01-19T04:15:35;14.60;;;9.70;;
8895;SDS011;4484;48.928;10.066;2023-01-19T04:18:02;16.93;;;10.70;;
8895;SDS011;4484;48.928;10.066;2023-01-19T04:20:31;15.33;;;10.33;;
8895;SDS011;4484;48.928;10.066;2023-01-19T04:22:59;15.70;;;9.40;;
8895;SDS011;4484;48.928;10.066;2023-01-19T04:25:27;13.50;;;9.13;;
8895;SDS011;4484;48.928;10.066;2023-01-19T04:27:54;17.97;;;10.43;;
8895;SDS011;4484;48.928;10.066;2023-01-19T04:30:23;15.80;;;9.57;;
8895;SDS011;4484;48.928;10.066;2023-01-19T04:32:50;16.17;;;10.77;;
8895;SDS011;4484;48.928;10.066;2023-01-19T04:35:17;13.10;;;9.20;;
8895;SDS011;4484;48.928;10.066;2023-01-19T04:37:44;14.17;;;8.87;;
8895;SDS011;4484;48.928;10.066;2023-01-19T04:40:10;17.00;;;9.40;;
8895;SDS011;4484;48.928;10.066;2023-01-19T04:42:37;14.57;;;9.87;;
8895;SDS011;4484;48.928;10.066;2023-01-19T04:45:08;16.13;;;9.47;;
8895;SDS011;4484;48.928;10.066;2023-01-19T04:47:35;15.73;;;10.00;;
8895;SDS011;4484;48.928;10.066;2023-01-19T04:50:02;17.80;;;9.43;;
8895;SDS011;4484;48.928;10.066;2023-01-19T04:52:34;17.00;;;9.97;;
8895;SDS011;4484;48.928;10.066;2023-01-19T04:55:02;17.80;;;10.67;;
8895;SDS011;4484;48.928;10.066;2023-01-19T04:57:31;17.17;;;9.77;;
8895;SDS011;4484;48.928;10.066;2023-01-19T04:59:58;14.90;;;9.53;;
8895;SDS011;4484;48.928;10.066;2023-01-19T05:02:24;13.07;;;9.50;;
8895;SDS011;4484;48.928;10.066;2023-01-19T05:04:51;16.70;;;10.23;;
8895;SDS011;4484;48.928;10.066;2023-01-19T05:07:19;16.13;;;9.87;;
8895;SDS011;4484;48.928;10.066;2023-01-19T05:09:45;19.53;;;9.53;;
8895;SDS011;4484;48.928;10.066;2023-01-19T05:12:12;14.37;;;9.23;;
8895;SDS011;4484;48.928;10.066;2023-01-19T05:14:39;18.53;;;9.47;;
8895;SDS011;4484;48.928;10.066;2023-01-19T05:17:06;20.40;;;11.47;;
8895;SDS011;4484;48.928;10.066;2023-01-19T05:19:32;19.17;;;10.33;;
8895;SDS011;4484;48.928;10.066;2023-01-19T05:22:00;16.37;;;10.20;;
8895;SDS011;4484;48.928;10.066;2023-01-19T05:24:31;16.37;;;10.47;;
8895;SDS011;4484;48.928;10.066;2023-01-19T05:26:58;17.97;;;10.63;;
8895;SDS011;4484;48.928;10.066;2023-01-19T05:29:24;17.37;;;10.77;;
8895;SDS011;4484;48.928;10.066;2023-01-19T05:31:51;14.77;;;9.33;;
8895;SDS011;4484;48.928;10.066;2023-01-19T05:34:18;14.63;;;9.73;;
8895;SDS011;4484;48.928;10.066;2023-01-19T05:36:45;15.40;;;10.60;;
8895;SDS011;4484;48.928;10.066;2023-01-19T05:39:12;19.53;;;10.67;;
8895;SDS011;4484;48.928;10.066;2023-01-19T05:41:39;14.40;;;9.93;;
8895;SDS011;4484;48.928;10.066;2023-01-19T05:44:08;20.30;;;13.13;;
8895;SDS011;4484;48.928;10.066;2023-01-19T05:46:35;18.17;;;11.73;;
8895;SDS011;4484;48.928;10.066;2023-01-19T05:49:02;16.20;;;11.03;;
8895;SDS011;4484;48.928;10.066;2023-01-19T05:51:30;18.77;;;11.07;;
8895;SDS011;4484;48.928;10.066;2023-01-19T05:54:00;19.03;;;11.57;;
8895;SDS011;4484;48.928;10.066;2023-01-19T05:56:27;17.67;;;11.37;;
8895;SDS011;4484;48.928;10.066;2023-01-19T05:58:55;15.97;;;10.93;;
8895;SDS011;4484;48.928;10.066;2023-01-19T06:01:22;18.73;;;11.00;;
8895;SDS011;4484;48.928;10.066;2023-01-19T06:03:49;19.23;;;11.70;;
8895;SDS011;4484;48.928;10.066;2023-01-19T06:06:16;45.57;;;21.73;;
8895;SDS011;4484;48.928;10.066;2023-01-19T06:08:44;39.27;;;18.23;;
8895;SDS011;4484;48.928;10.066;2023-01-19T06:11:11;22.83;;;13.83;;
8895;SDS011;4484;48.928;10.066;2023-01-19T06:13:38;16.83;;;10.70;;
8895;SDS011;4484;48.928;10.066;2023-01-19T06:16:07;14.67;;;10.00;;
8895;SDS011;4484;48.928;10.066;2023-01-19T06:18:34;14.73;;;9.60;;
8895;SDS011;4484;48.928;10.066;2023-01-19T06:21:08;17.60;;;10.57;;
8895;SDS011;4484;48.928;10.066;2023-01-19T06:23:37;17.50;;;11.43;;
8895;SDS011;4484;48.928;10.066;2023-01-19T06:26:04;18.00;;;10.43;;
8895;SDS011;4484;48.928;10.066;2023-01-19T06:28:31;17.13;;;10.13;;
8895;SDS011;4484;48.928;10.066;2023-01-19T06:30:57;16.40;;;9.47;;
8895;SDS011;4484;48.928;10.066;2023-01-19T06:33:24;14.63;;;9.87;;
8895;SDS011;4484;48.928;10.066;2023-01-19T06:35:53;15.00;;;10.03;;
8895;SDS011;4484;48.928;10.066;2023-01-19T06:38:20;16.80;;;9.07;;
8895;SDS011;4484;48.928;10.066;2023-01-19T06:40:52;17.87;;;10.00;;
8895;SDS011;4484;48.928;10.066;2023-01-19T06:43:20;16.30;;;9.07;;
8895;SDS011;4484;48.928;10.066;2023-01-19T06:45:48;18.17;;;10.00;;
8895;SDS011;4484;48.928;10.066;2023-01-19T06:48:15;14.63;;;8.23;;
8895;SDS011;4484;48.928;10.066;2023-01-19T06:50:45;14.90;;;9.57;;
8895;SDS011;4484;48.928;10.066;2023-01-19T06:53:13;14.27;;;9.67;;
8895;SDS011;4484;48.928;10.066;2023-01-19T06:55:42;15.93;;;10.13;;
8895;SDS011;4484;48.928;10.066;2023-01-19T06:58:09;29.80;;;13.10;;
8895;SDS011;4484;48.928;10.066;2023-01-19T07:00:36;22.63;;;12.17;;
8895;SDS011;4484;48.928;10.066;2023-01-19T07:03:06;24.97;;;12.63;;
8895;SDS011;4484;48.928;10.066;2023-01-19T07:05:34;22.97;;;11.40;;
8895;SDS011;4484;48.928;10.066;2023-01-19T07:08:02;16.77;;;11.03;;
8895;SDS011;4484;48.928;10.066;2023-01-19T07:10:29;14.20;;;9.00;;
8895;SDS011;4484;48.928;10.066;2023-01-19T07:13:16;14.03;;;9.07;;
8895;SDS011;4484;48.928;10.066;2023-01-19T07:15:43;12.77;;;8.27;;
8895;SDS011;4484;48.928;10.066;2023-01-19T07:18:09;17.23;;;9.67;;
8895;SDS011;4484;48.928;10.066;2023-01-19T07:20:36;12.73;;;9.13;;
8895;SDS011;4484;48.928;10.066;2023-01-19T07:23:03;16.97;;;10.27;;
8895;SDS011;4484;48.928;10.066;2023-01-19T07:25:31;19.47;;;11.93;;
8895;SDS011;4484;48.928;10.066;2023-01-19T07:27:58;14.63;;;10.40;;
8895;SDS011;4484;48.928;10.066;2023-01-19T07:30:25;23.37;;;13.53;;
8895;SDS011;4484;48.928;10.066;2023-01-19T07:32:56;22.27;;;12.20;;
8895;SDS011;4484;48.928;10.066;2023-01-19T07:35:24;22.27;;;12.47;;
8895;SDS011;4484;48.928;10.066;2023-01-19T07:37:51;18.23;;;11.03;;
8895;SDS011;4484;48.928;10.066;2023-01-19T07:40:18;21.50;;;11.67;;
8895;SDS011;4484;48.928;10.066;2023-01-19T07:42:46;18.13;;;10.83;;
8895;SDS011;4484;48.928;10.066;2023-01-19T07:45:15;14.97;;;9.80;;
8895;SDS011;4484;48.928;10.066;2023-01-19T07:47:43;13.53;;;9.33;;
8895;SDS011;4484;48.928;10.066;2023-01-19T07:50:11;15.17;;;9.67;;
8895;SDS011;4484;48.928;10.066;2023-01-19T07:52:39;13.53;;;9.43;;
8895;SDS011;4484;48.928;10.066;2023-01-19T07:55:06;14.07;;;9.17;;
8895;SDS011;4484;48.928;10.066;2023-01-19T07:57:34;18.17;;;9.93;;
8895;SDS011;4484;48.928;10.066;2023-01-19T08:00:02;13.93;;;8.93;;
8895;SDS011;4484;48.928;10.066;2023-01-19T08:02:37;16.40;;;9.73;;
8895;SDS011;4484;48.928;10.066;2023-01-19T08:05:04;15.33;;;9.43;;
8895;SDS011;4484;48.928;10.066;2023-01-19T08:07:32;17.37;;;9.57;;
8895;SDS011;4484;48.928;10.066;2023-01-19T08:09:59;16.90;;;9.47;;
8895;SDS011;4484;48.928;10.066;2023-01-19T08:12:26;13.47;;;8.90;;
8895;SDS011;4484;48.928;10.066;2023-01-19T08:14:53;12.90;;;8.50;;
8895;SDS011;4484;48.928;10.066;2023-01-19T08:17:20;11.10;;;7.30;;
8895;SDS011;4484;48.928;10.066;2023-01-19T08:19:46;11.30;;;7.80;;
8895;SDS011;4484;48.928;10.066;2023-01-19T08:22:13;11.10;;;7.50;;
8895;SDS011;4484;48.928;10.066;2023-01-19T08:24:40;15.30;;;8.60;;
8895;SDS011;4484;48.928;10.066;2023-01-19T08:27:07;16.50;;;10.83;;
8895;SDS011;4484;48.928;10.066;2023-01-19T08:29:35;13.77;;;9.07;;
8895;SDS011;4484;48.928;10.066;2023-01-19T08:32:02;14.37;;;8.03;;
8895;SDS011;4484;48.928;10.066;2023-01-19T08:34:30;11.40;;;7.50;;
8895;SDS011;4484;48.928;10.066;2023-01-19T08:36:57;9.37;;;6.33;;
8895;SDS011;4484;48.928;10.066;2023-01-19T08:39:25;11.43;;;7.10;;
8895;SDS011;4484;48.928;10.066;2023-01-19T08:41:52;12.10;;;7.13;;
8895;SDS011;4484;48.928;10.066;2023-01-19T08:44:19;8.17;;;5.50;;
8895;SDS011;4484;48.928;10.066;2023-01-19T08:46:46;9.10;;;5.60;;
8895;SDS011;4484;48.928;10.066;2023-01-19T08:49:13;8.43;;;6.03;;
8895;SDS011;4484;48.928;10.066;2023-01-19T08:51:41;8.40;;;5.67;;
8895;SDS011;4484;48.928;10.066;2023-01-19T08:54:11;9.23;;;6.63;;
8895;SDS011;4484;48.928;10.066;2023-01-19T08:56:39;9.93;;;6.10;;
8895;SDS011;4484;48.928;10.066;2023-01-19T08:59:05;8.10;;;6.13;;
8895;SDS011;4484;48.928;10.066;2023-01-19T09:01:37;12.60;;;6.47;;
8895;SDS011;4484;48.928;10.066;2023-01-19T09:04:04;10.30;;;5.60;;
8895;SDS011;4484;48.928;10.066;2023-01-19T09:06:31;12.07;;;5.73;;
8895;SDS011;4484;48.928;10.066;2023-01-19T09:08:58;12.20;;;6.60;;
8895;SDS011;4484;48.928;10.066;2023-01-19T09:11:25;11.63;;;5.83;;
8895;SDS011;4484;48.928;10.066;2023-01-19T09:13:52;10.63;;;6.13;;
8895;SDS011;4484;48.928;10.066;2023-01-19T09:16:19;12.67;;;6.63;;
8895;SDS011;4484;48.928;10.066;2023-01-19T09:18:46;11.13;;;6.33;;
8895;SDS011;4484;48.928;10.066;2023-01-19T09:21:14;8.03;;;5.30;;
8895;SDS011;4484;48.928;10.066;2023-01-19T09:23:41;8.30;;;6.03;;
8895;SDS011;4484;48.928;10.066;2023-01-19T09:26:08;14.53;;;6.50;;
8895;SDS011;4484;48.928;10.066;2023-01-19T09:28:36;10.67;;;5.67;;
8895;SDS011;4484;48.928;10.066;2023-01-19T09:31:04;10.87;;;5.77;;
8895;SDS011;4484;48.928;10.066;2023-01-19T09:33:34;8.73;;;5.70;;
8895;SDS011;4484;48.928;10.066;2023-01-19T09:36:01;14.43;;;6.90;;
8895;SDS011;4484;48.928;10.066;2023-01-19T09:38:28;12.87;;;7.10;;
8895;SDS011;4484;48.928;10.066;2023-01-19T09:40:59;14.00;;;7.93;;
8895;SDS011;4484;48.928;10.066;2023-01-19T09:49:18;6.90;;;4.50;;
8895;SDS011;4484;48.928;10.066;2023-01-19T09:51:51;7.80;;;4.20;;
8895;SDS011;4484;48.928;10.066;2023-01-19T09:54:28;5.67;;;3.90;;
8895;SDS011;4484;48.928;10.066;2023-01-19T09:57:01;5.73;;;3.97;;
8895;SDS011;4484;48.928;10.066;2023-01-19T09:59:28;8.27;;;3.97;;
8895;SDS011;4484;48.928;10.066;2023-01-19T10:04:50;8.93;;;4.33;;
8895;SDS011;4484;48.928;10.066;2023-01-19T10:07:41;6.43;;;3.90;;
8895;SDS011;4484;48.928;10.066;2023-01-19T10:10:20;5.73;;;3.77;;
8895;SDS011;4484;48.928;10.066;2023-01-19T10:15:38;5.40;;;2.90;;
8895;SDS011;4484;48.928;10.066;2023-01-19T10:20:50;4.97;;;3.03;;
8895;SDS011;4484;48.928;10.066;2023-01-19T10:28:49;5.10;;;3.37;;
8895;SDS011;4484;48.928;10.066;2023-01-19T10:31:21;4.47;;;3.03;;
8895;SDS011;4484;48.928;10.066;2023-01-19T10:33:49;2.97;;;2.67;;
8895;SDS011;4484;48.928;10.066;2023-01-19T10:36:20;3.27;;;2.67;;
8895;SDS011;4484;48.928;10.066;2023-01-19T10:38:51;4.13;;;2.47;;
8895;SDS011;4484;48.928;10.066;2023-01-19T10:41:30;3.40;;;2.50;;
8895;SDS011;4484;48.928;10.066;2023-01-19T10:44:09;6.27;;;3.20;;
8895;SDS011;4484;48.928;10.066;2023-01-19T10:46:40;4.80;;;3.07;;
8895;SDS011;4484;48.928;10.066;2023-01-19T10:51:53;4.83;;;3.10;;
8895;SDS011;4484;48.928;10.066;2023-01-19T10:54:22;5.80;;;3.23;;
8895;SDS011;4484;48.928;10.066;2023-01-19T10:56:54;4.83;;;2.60;;
8895;SDS011;4484;48.928;10.066;2023-01-19T10:59:35;6.13;;;3.07;;
8895;SDS011;4484;48.928;10.066;2023-01-19T11:02:17;5.67;;;2.97;;
8895;SDS011;4484;48.928;10.066;2023-01-19T11:04:46;5.93;;;3.47;;
8895;SDS011;4484;48.928;10.066;2023-01-19T11:12:44;7.00;;;3.20;;
8895;SDS011;4484;48.928;10.066;2023-01-19T11:15:20;4.67;;;2.83;;
8895;SDS011;4484;48.928;10.066;2023-01-19T11:17:49;4.93;;;2.50;;
8895;SDS011;4484;48.928;10.066;2023-01-19T11:20:24;6.30;;;3.10;;
8895;SDS011;4484;48.928;10.066;2023-01-19T11:23:02;4.20;;;2.70;;
8895;SDS011;4484;48.928;10.066;2023-01-19T11:25:31;3.63;;;2.30;;
8895;SDS011;4484;48.928;10.066;2023-01-19T11:28:00;4.93;;;3.10;;
8895;SDS011;4484;48.928;10.066;2023-01-19T11:30:28;2.40;;;2.20;;
8895;SDS011;4484;48.928;10.066;2023-01-19T11:32:56;3.63;;;2.57;;
8895;SDS011;4484;48.928;10.066;2023-01-19T11:38:06;4.73;;;2.80;;
8895;SDS011;4484;48.928;10.066;2023-01-19T11:40:52;4.13;;;2.80;;
8895;SDS011;4484;48.928;10.066;2023-01-19T11:43:21;4.30;;;2.57;;
8895;SDS011;4484;48.928;10.066;2023-01-19T11:45:50;4.07;;;3.10;;
8895;SDS011;4484;48.928;10.066;2023-01-19T11:48:21;17.00;;;8.10;;
8895;SDS011;4484;48.928;10.066;2023-01-19T11:50:58;15.77;;;8.40;;
8895;SDS011;4484;48.928;10.066;2023-01-19T11:53:29;7.93;;;4.20;;
8895;SDS011;4484;48.928;10.066;2023-01-19T11:56:12;6.27;;;3.13;;
8895;SDS011;4484;48.928;10.066;2023-01-19T11:58:41;5.00;;;2.50;;
8895;SDS011;4484;48.928;10.066;2023-01-19T12:01:29;3.63;;;2.77;;
8895;SDS011;4484;48.928;10.066;2023-01-19T12:04:10;13.77;;;6.10;;
8895;SDS011;4484;48.928;10.066;2023-01-19T12:06:41;19.47;;;8.43;;
8895;SDS011;4484;48.928;10.066;2023-01-19T12:09:47;8.50;;;3.60;;
8895;SDS011;4484;48.928;10.066;2023-01-19T12:15:01;7.93;;;4.30;;
8895;SDS011;4484;48.928;10.066;2023-01-19T12:17:34;9.33;;;3.33;;
8895;SDS011;4484;48.928;10.066;2023-01-19T12:23:34;5.33;;;2.53;;
8895;SDS011;4484;48.928;10.066;2023-01-19T12:28:31;4.57;;;2.57;;
8895;SDS011;4484;48.928;10.066;2023-01-19T12:31:02;5.00;;;2.60;;
8895;SDS011;4484;48.928;10.066;2023-01-19T12:33:34;3.63;;;2.60;;
8895;SDS011;4484;48.928;10.066;2023-01-19T12:36:04;3.23;;;2.37;;
8895;SDS011;4484;48.928;10.066;2023-01-19T12:57:37;4.10;;;2.67;;
8895;SDS011;4484;48.928;10.066;2023-01-19T13:00:07;4.20;;;2.80;;
8895;SDS011;4484;48.928;10.066;2023-01-19T13:02:58;3.20;;;2.20;;
8895;SDS011;4484;48.928;10.066;2023-01-19T13:13:44;5.80;;;2.80;;
8895;SDS011;4484;48.928;10.066;2023-01-19T13:18:45;6.00;;;3.27;;
8895;SDS011;4484;48.928;10.066;2023-01-19T13:21:32;5.43;;;2.90;;
8895;SDS011;4484;48.928;10.066;2023-01-19T13:32:05;4.27;;;2.90;;
8895;SDS011;4484;48.928;10.066;2023-01-19T13:34:42;3.47;;;2.80;;
8895;SDS011;4484;48.928;10.066;2023-01-19T13:37:17;3.23;;;2.40;;
8895;SDS011;4484;48.928;10.066;2023-01-19T13:39:47;6.77;;;3.63;;
8895;SDS011;4484;48.928;10.066;2023-01-19T13:42:17;4.67;;;3.10;;
8895;SDS011;4484;48.928;10.066;2023-01-19T13:45:02;3.63;;;2.83;;
8895;SDS011;4484;48.928;10.066;2023-01-19T13:47:42;4.60;;;3.60;;
8895;SDS011;4484;48.928;10.066;2023-01-19T13:50:22;3.33;;;2.57;;
8895;SDS011;4484;48.928;10.066;2023-01-19T13:52:54;3.70;;;2.23;;
8895;SDS011;4484;48.928;10.066;2023-01-19T13:55:22;4.13;;;2.53;;
8895;SDS011;4484;48.928;10.066;2023-01-19T13:57:50;5.90;;;2.80;;
8895;SDS011;4484;48.928;10.066;2023-01-19T14:00:18;4.03;;;2.93;;
8895;SDS011;4484;48.928;10.066;2023-01-19T14:05:23;6.20;;;3.40;;
8895;SDS011;4484;48.928;10.066;2023-01-19T14:07:58;8.00;;;4.30;;
8895;SDS011;4484;48.928;10.066;2023-01-19T14:10:26;7.03;;;3.10;;
8895;SDS011;4484;48.928;10.066;2023-01-19T14:12:57;4.40;;;2.83;;
8895;SDS011;4484;48.928;10.066;2023-01-19T14:15:31;4.10;;;2.93;;
8895;SDS011;4484;48.928;10.066;2023-01-19T14:21:04;4.27;;;3.10;;
8895;SDS011;4484;48.928;10.066;2023-01-19T14:23:53;5.27;;;2.93;;
8895;SDS011;4484;48.928;10.066;2023-01-19T14:34:35;5.77;;;3.10;;
8895;SDS011;4484;48.928;10.066;2023-01-19T14:39:59;7.13;;;3.47;;
8895;SDS011;4484;48.928;10.066;2023-01-19T14:42:37;8.40;;;3.87;;
8895;SDS011;4484;48.928;10.066;2023-01-19T14:45:05;6.57;;;4.30;;
8895;SDS011;4484;48.928;10.066;2023-01-19T14:47:41;4.20;;;3.27;;
8895;SDS011;4484;48.928;10.066;2023-01-19T14:50:19;8.23;;;4.33;;
8895;SDS011;4484;48.928;10.066;2023-01-19T14:52:50;5.47;;;3.67;;
8895;SDS011;4484;48.928;10.066;2023-01-19T14:55:37;5.90;;;3.53;;
8895;SDS011;4484;48.928;10.066;2023-01-19T14:58:13;7.73;;;4.40;;
8895;SDS011;4484;48.928;10.066;2023-01-19T15:00:42;8.93;;;6.10;;
8895;SDS011;4484;48.928;10.066;2023-01-19T15:03:10;8.87;;;6.13;;
8895;SDS011;4484;48.928;10.066;2023-01-19T15:05:37;10.50;;;5.80;;
8895;SDS011;4484;48.928;10.066;2023-01-19T15:08:06;5.10;;;3.30;;
8895;SDS011;4484;48.928;10.066;2023-01-19T15:10:39;4.80;;;3.30;;
8895;SDS011;4484;48.928;10.066;2023-01-19T15:13:08;10.73;;;4.90;;
8895;SDS011;4484;48.928;10.066;2023-01-19T15:15:44;10.17;;;7.27;;
8895;SDS011;4484;48.928;10.066;2023-01-19T15:18:13;11.20;;;6.23;;
8895;SDS011;4484;48.928;10.066;2023-01-19T15:20:42;10.83;;;7.60;;
8895;SDS011;4484;48.928;10.066;2023-01-19T15:23:09;10.30;;;5.93;;
8895;SDS011;4484;48.928;10.066;2023-01-19T15:25:36;10.13;;;6.33;;
8895;SDS011;4484;48.928;10.066;2023-01-19T15:28:17;9.07;;;4.80;;
8895;SDS011;4484;48.928;10.066;2023-01-19T15:30:45;7.07;;;4.67;;
8895;SDS011;4484;48.928;10.066;2023-01-19T15:33:16;5.90;;;3.90;;
8895;SDS011;4484;48.928;10.066;2023-01-19T15:35:48;11.43;;;4.77;;
8895;SDS011;4484;48.928;10.066;2023-01-19T15:38:15;7.20;;;5.10;;
8895;SDS011;4484;48.928;10.066;2023-01-19T15:40:42;7.83;;;3.97;;
8895;SDS011;4484;48.928;10.066;2023-01-19T15:43:09;7.37;;;4.00;;
8895;SDS011;4484;48.928;10.066;2023-01-19T15:48:07;6.03;;;3.77;;
8895;SDS011;4484;48.928;10.066;2023-01-19T15:50:38;4.90;;;3.03;;
8895;SDS011;4484;48.928;10.066;2023-01-19T15:53:11;5.57;;;3.20;;
8895;SDS011;4484;48.928;10.066;2023-01-19T15:55:42;5.27;;;3.57;;
8895;SDS011;4484;48.928;10.066;2023-01-19T15:58:10;7.33;;;4.00;;
8895;SDS011;4484;48.928;10.066;2023-01-19T16:00:39;6.13;;;3.77;;
8895;SDS011;4484;48.928;10.066;2023-01-19T16:03:07;7.77;;;3.67;;
8895;SDS011;4484;48.928;10.066;2023-01-19T16:05:35;4.93;;;3.80;;
8895;SDS011;4484;48.928;10.066;2023-01-19T16:08:11;5.93;;;3.97;;
8895;SDS011;4484;48.928;10.066;2023-01-19T16:10:39;5.13;;;3.40;;
8895;SDS011;4484;48.928;10.066;2023-01-19T16:13:07;7.20;;;4.23;;
8895;SDS011;4484;48.928;10.066;2023-01-19T16:15:35;5.73;;;4.80;;
8895;SDS011;4484;48.928;10.066;2023-01-19T16:18:03;7.53;;;4.97;;
8895;SDS011;4484;48.928;10.066;2023-01-19T16:20:31;6.27;;;4.07;;
8895;SDS011;4484;48.928;10.066;2023-01-19T16:22:57;6.33;;;3.73;;
8895;SDS011;4484;48.928;10.066;2023-01-19T16:25:39;6.10;;;4.17;;
8895;SDS011;4484;48.928;10.066;2023-01-19T16:28:06;7.10;;;4.40;;
8895;SDS011;4484;48.928;10.066;2023-01-19T16:30:33;8.00;;;4.30;;
8895;SDS011;4484;48.928;10.066;2023-01-19T16:33:01;9.57;;;5.20;;
8895;SDS011;4484;48.928;10.066;2023-01-19T16:35:30;22.17;;;10.10;;
8895;SDS011;4484;48.928;10.066;2023-01-19T16:37:57;24.23;;;11.60;;
8895;SDS011;4484;48.928;10.066;2023-01-19T16:40:24;26.30;;;13.43;;
8895;SDS011;4484;48.928;10.066;2023-01-19T16:42:51;24.37;;;11.80;;
8895;SDS011;4484;48.928;10.066;2023-01-19T16:45:18;20.33;;;11.70;;
8895;SDS011;4484;48.928;10.066;2023-01-19T16:47:45;16.73;;;10.20;;
8895;SDS011;4484;48.928;10.066;2023-01-19T16:50:17;18.77;;;9.60;;
8895;SDS011;4484;48.928;10.066;2023-01-19T16:52:44;12.17;;;7.87;;
8895;SDS011;4484;48.928;10.066;2023-01-19T16:55:11;10.30;;;6.20;;
8895;SDS011;4484;48.928;10.066;2023-01-19T16:57:37;9.30;;;5.73;;
8895;SDS011;4484;48.928;10.066;2023-01-19T17:00:05;9.07;;;5.87;;
8895;SDS011;4484;48.928;10.066;2023-01-19T17:02:34;8.63;;;5.77;;